Time;durP1;ratioP1;P1;durP2;ratioP2;P2;SDS_P1;SDS_P2;PMS_P1;PMS_P2;Temp;Humidity;BMP_temperature;BMP_pressure;BME280_temperature;BME280_humidity;BME280_pressure;Samples;Min_cycle;Max_cycle;Signal;HPM_P1;HPM_P2
2023/06/10 00:00:41;;;;;;;4.97;3.10;;;20.00;99.90;;;;;;5060596;28;20176;-66
2023/06/10 00:03:07;;;;;;;6.97;3.20;;;19.90;99.90;;;;;;5061107;28;20487;-66
2023/06/10 00:05:34;;;;;;;6.60;3.13;;;19.90;99.90;;;;;;5059450;28;20169;-66
2023/06/10 00:08:07;;;;;;;10.60;3.97;;;19.90;99.90;;;;;;5059924;28;20169;-66
2023/06/10 00:10:35;;;;;;;7.73;3.90;;;19.80;99.90;;;;;;5077519;28;20233;-66
2023/06/10 00:13:01;;;;;;;9.20;3.37;;;19.60;99.90;;;;;;5078190;28;20252;-66
2023/06/10 00:15:26;;;;;;;7.60;3.63;;;19.60;99.90;;;;;;5078722;28;20165;-67
2023/06/10 00:17:52;;;;;;;7.40;3.17;;;19.50;99.90;;;;;;5061688;28;20215;-67
2023/06/10 00:20:18;;;;;;;6.83;2.80;;;19.50;99.90;;;;;;5060088;28;20161;-67
2023/06/10 00:22:45;;;;;;;5.97;3.27;;;19.40;99.90;;;;;;5062321;28;20175;-67
2023/06/10 00:25:11;;;;;;;7.70;3.43;;;19.30;99.90;;;;;;5061922;28;20271;-67
2023/06/10 00:27:36;;;;;;;7.93;3.60;;;19.30;99.90;;;;;;5079894;28;20192;-67
2023/06/10 00:30:06;;;;;;;10.77;3.30;;;19.30;99.90;;;;;;5079378;28;20294;-63
2023/06/10 00:32:32;;;;;;;6.77;2.90;;;19.30;99.90;;;;;;5062019;28;20168;-63
2023/06/10 00:34:58;;;;;;;5.20;3.10;;;19.20;99.90;;;;;;5061798;28;20234;-63
2023/06/10 00:37:23;;;;;;;8.07;3.10;;;19.30;99.90;;;;;;5061969;28;20196;-63
2023/06/10 00:39:49;;;;;;;8.33;2.93;;;19.30;99.90;;;;;;5079023;28;20173;-64
2023/06/10 00:42:16;;;;;;;9.77;3.03;;;19.20;99.90;;;;;;5078639;28;20141;-64
2023/06/10 00:45:05;;;;;;;5.13;2.87;;;19.10;99.90;;;;;;5061119;28;20165;-63
2023/06/10 00:47:31;;;;;;;4.63;2.93;;;19.20;99.90;;;;;;5060655;28;20263;-64
2023/06/10 00:49:57;;;;;;;5.70;3.13;;;19.20;99.90;;;;;;5077617;28;20153;-63
2023/06/10 00:52:27;;;;;;;4.67;2.30;;;19.20;99.90;;;;;;5078375;28;20161;-63
2023/06/10 00:54:52;;;;;;;6.40;3.30;;;19.20;99.90;;;;;;5060019;28;20573;-63
2023/06/10 00:57:18;;;;;;;7.33;2.73;;;19.10;99.90;;;;;;5078331;28;20192;-63
2023/06/10 00:59:48;;;;;;;11.90;3.30;;;19.10;99.90;;;;;;5061556;28;20164;-63
2023/06/10 01:02:18;;;;;;;7.63;2.80;;;19.00;99.90;;;;;;5061365;28;20613;-63
2023/06/10 01:04:48;;;;;;;8.23;2.90;;;19.00;99.90;;;;;;5078476;28;20145;-64
2023/06/10 01:07:24;;;;;;;5.47;2.60;;;19.00;99.90;;;;;;5061615;28;20222;-63
2023/06/10 01:09:56;;;;;;;11.17;3.23;;;19.00;99.90;;;;;;5061522;28;20191;-63
2023/06/10 01:12:34;;;;;;;7.67;2.93;;;19.00;99.90;;;;;;5061660;28;20272;-63
2023/06/10 01:15:01;;;;;;;7.93;2.87;;;18.90;99.90;;;;;;5061384;28;20221;-63
2023/06/10 01:17:27;;;;;;;5.30;2.97;;;18.80;99.90;;;;;;5079012;28;20289;-63
2023/06/10 01:19:56;;;;;;;6.47;3.20;;;18.80;99.90;;;;;;5060626;28;20190;-63
2023/06/10 01:22:32;;;;;;;7.27;3.23;;;18.80;99.90;;;;;;5061111;28;20165;-64
2023/06/10 01:24:58;;;;;;;8.00;2.63;;;18.80;99.90;;;;;;5078138;28;20215;-63
2023/06/10 01:27:30;;;;;;;6.80;3.20;;;18.70;99.90;;;;;;5061135;28;20234;-63
2023/06/10 01:30:03;;;;;;;4.77;2.70;;;18.60;99.90;;;;;;5077753;28;20218;-63
2023/06/10 01:32:40;;;;;;;4.70;2.80;;;18.60;99.90;;;;;;5060244;28;20180;-63
2023/06/10 01:35:08;;;;;;;9.17;3.33;;;18.50;99.90;;;;;;5061115;28;20164;-63
2023/06/10 01:37:35;;;;;;;3.33;2.50;;;18.50;99.90;;;;;;5061105;28;20215;-63
2023/06/10 01:40:05;;;;;;;4.60;2.80;;;18.40;99.90;;;;;;5061052;28;20180;-63
2023/06/10 01:42:32;;;;;;;7.80;2.70;;;18.40;99.90;;;;;;5061630;28;20173;-64
2023/06/10 01:44:58;;;;;;;6.23;2.63;;;18.40;99.90;;;;;;5077244;28;20165;-63
2023/06/10 01:47:24;;;;;;;6.47;2.40;;;18.30;99.90;;;;;;5060476;28;20305;-63
2023/06/10 01:49:53;;;;;;;5.13;2.40;;;18.20;99.90;;;;;;5060282;28;20267;-64
2023/06/10 01:52:24;;;;;;;6.47;3.07;;;18.30;99.90;;;;;;5077038;28;20160;-64
2023/06/10 01:54:50;;;;;;;6.57;2.50;;;18.20;99.90;;;;;;5076766;28;20172;-64
2023/06/10 01:57:18;;;;;;;6.13;2.87;;;18.20;99.90;;;;;;5059474;28;20266;-64
2023/06/10 01:59:44;;;;;;;9.13;2.70;;;18.20;99.90;;;;;;5059619;28;20169;-63
2023/06/10 02:02:10;;;;;;;4.83;2.57;;;18.10;99.90;;;;;;5059724;28;20157;-63
2023/06/10 02:04:36;;;;;;;4.93;2.50;;;18.10;99.90;;;;;;5059232;28;20169;-63
2023/06/10 02:07:03;;;;;;;6.20;2.77;;;18.10;99.90;;;;;;5059954;28;20180;-64
2023/06/10 02:09:30;;;;;;;5.57;2.73;;;18.00;99.90;;;;;;5077329;28;20165;-63
2023/06/10 02:11:55;;;;;;;6.47;2.30;;;17.90;99.90;;;;;;5077262;28;20165;-64
2023/06/10 02:14:21;;;;;;;7.27;2.30;;;17.90;99.90;;;;;;5059973;28;20183;-63
2023/06/10 02:16:47;;;;;;;6.57;2.70;;;17.80;99.90;;;;;;5074092;28;20200;-63
2023/06/10 02:19:13;;;;;;;8.60;2.30;;;17.80;99.90;;;;;;5073640;28;20173;-64
2023/06/10 02:21:39;;;;;;;5.83;2.20;;;17.70;99.90;;;;;;5076115;28;20467;-64
2023/06/10 02:24:05;;;;;;;4.00;2.10;;;17.70;99.90;;;;;;5060863;28;20180;-64
2023/06/10 02:26:31;;;;;;;4.00;2.33;;;17.80;99.90;;;;;;5077868;28;20315;-64
2023/06/10 02:28:57;;;;;;;4.87;2.10;;;17.70;99.90;;;;;;5076730;28;20176;-63
2023/06/10 02:31:24;;;;;;;9.07;2.47;;;17.80;99.90;;;;;;5056152;28;20217;-63
2023/06/10 02:33:49;;;;;;;7.17;2.73;;;17.70;99.90;;;;;;5056678;28;20192;-64
2023/06/10 02:36:15;;;;;;;5.00;2.10;;;17.70;99.90;;;;;;5055819;28;20212;-63
2023/06/10 02:38:41;;;;;;;4.27;2.13;;;17.60;99.90;;;;;;5056286;28;20201;-63
2023/06/10 02:41:07;;;;;;;5.47;1.77;;;17.60;99.90;;;;;;5056129;28;20174;-63
2023/06/10 02:43:32;;;;;;;6.33;2.33;;;17.60;99.90;;;;;;5056496;28;20277;-63
2023/06/10 02:45:58;;;;;;;5.17;2.77;;;17.60;99.90;;;;;;5056220;28;20166;-63
2023/06/10 02:48:27;;;;;;;4.73;1.80;;;17.60;99.90;;;;;;5056713;28;20173;-63
2023/06/10 02:51:15;;;;;;;5.97;2.10;;;17.60;99.90;;;;;;5057183;28;20227;-63
2023/06/10 02:53:40;;;;;;;5.10;2.50;;;17.50;99.90;;;;;;5056530;28;20927;-63
2023/06/10 02:56:06;;;;;;;6.60;2.33;;;17.50;99.90;;;;;;5055759;28;20323;-63
2023/06/10 02:58:32;;;;;;;6.83;2.50;;;17.50;99.90;;;;;;5057335;28;20338;-63
2023/06/10 03:00:58;;;;;;;5.00;2.20;;;17.50;99.90;;;;;;5055365;28;20235;-63
2023/06/10 03:03:24;;;;;;;5.93;2.03;;;17.50;99.90;;;;;;5056111;28;20150;-63
2023/06/10 03:05:49;;;;;;;7.80;2.40;;;17.40;99.90;;;;;;5056675;28;20443;-63
2023/06/10 03:08:16;;;;;;;4.80;1.63;;;17.40;99.90;;;;;;5056174;28;20239;-64
2023/06/10 03:10:42;;;;;;;4.00;1.97;;;17.40;99.90;;;;;;5057680;28;20196;-63
2023/06/10 03:13:07;;;;;;;6.97;2.20;;;17.30;99.90;;;;;;5055634;28;20169;-63
2023/06/10 03:15:33;;;;;;;4.53;2.30;;;17.30;99.90;;;;;;5056128;28;20173;-63
2023/06/10 03:18:02;;;;;;;4.03;2.07;;;17.30;99.90;;;;;;5055945;28;20193;-63
2023/06/10 03:20:28;;;;;;;5.47;1.57;;;17.30;99.90;;;;;;5055504;28;20469;-63
2023/06/10 03:22:54;;;;;;;6.37;1.97;;;17.30;99.90;;;;;;5053831;28;20211;-63
2023/06/10 03:25:20;;;;;;;6.80;2.40;;;17.30;99.90;;;;;;5053243;28;20208;-63
2023/06/10 03:27:46;;;;;;;6.47;1.83;;;17.20;99.90;;;;;;5054038;28;20174;-63
2023/06/10 03:30:13;;;;;;;5.33;2.03;;;17.20;99.90;;;;;;5056132;28;20274;-63
2023/06/10 03:32:38;;;;;;;5.10;1.90;;;17.10;99.90;;;;;;5056854;28;20169;-63
2023/06/10 03:35:04;;;;;;;4.50;1.97;;;17.10;99.90;;;;;;5055567;28;20185;-63
2023/06/10 03:37:30;;;;;;;6.93;2.67;;;17.10;99.90;;;;;;5056118;28;20219;-63
2023/06/10 03:39:55;;;;;;;4.73;2.50;;;17.10;99.90;;;;;;5073880;28;20172;-63
2023/06/10 03:42:21;;;;;;;9.77;2.27;;;17.10;99.90;;;;;;5056049;28;20164;-63
2023/06/10 03:44:47;;;;;;;9.70;2.27;;;17.00;99.90;;;;;;5073435;28;20614;-64
2023/06/10 03:47:12;;;;;;;8.30;2.17;;;17.00;99.90;;;;;;5056010;28;20180;-63
2023/06/10 03:49:40;;;;;;;7.63;1.97;;;17.00;99.90;;;;;;5055797;28;20191;-63
2023/06/10 03:52:06;;;;;;;5.33;2.10;;;17.10;99.90;;;;;;5073501;28;20180;-62
2023/06/10 03:54:31;;;;;;;6.13;2.00;;;17.00;99.90;;;;;;5053590;28;20183;-63
2023/06/10 03:56:57;;;;;;;2.77;1.70;;;17.00;99.90;;;;;;5072156;28;20309;-63
2023/06/10 03:59:23;;;;;;;2.67;1.63;;;17.00;99.90;;;;;;5054057;28;20169;-64
2023/06/10 04:01:48;;;;;;;8.10;2.10;;;16.90;99.90;;;;;;5070727;28;20179;-63
2023/06/10 04:04:17;;;;;;;4.20;1.77;;;16.90;99.90;;;;;;5053942;28;20255;-63
2023/06/10 04:06:46;;;;;;;5.63;2.53;;;16.90;99.90;;;;;;5053256;28;20260;-63
2023/06/10 04:09:12;;;;;;;5.40;2.03;;;16.90;99.90;;;;;;5071843;28;20311;-64
2023/06/10 04:11:38;;;;;;;5.33;2.33;;;16.90;99.90;;;;;;5071929;28;20342;-64
2023/06/10 04:14:03;;;;;;;5.03;2.03;;;16.90;99.90;;;;;;5053673;28;20594;-64
2023/06/10 04:16:29;;;;;;;7.23;2.23;;;17.00;99.90;;;;;;5053855;28;20184;-63
2023/06/10 04:18:55;;;;;;;7.87;2.10;;;17.00;99.90;;;;;;5069972;28;20340;-63
2023/06/10 04:21:21;;;;;;;7.27;2.20;;;17.00;99.90;;;;;;5071413;28;20217;-63
2023/06/10 04:23:47;;;;;;;6.03;1.70;;;16.90;99.90;;;;;;5056522;28;20193;-63
2023/06/10 04:26:15;;;;;;;5.27;2.30;;;17.00;99.90;;;;;;5076945;28;20222;-63
2023/06/10 04:28:43;;;;;;;8.10;2.07;;;17.00;99.90;;;;;;5059590;28;20806;-63
2023/06/10 04:31:09;;;;;;;3.80;2.00;;;17.00;99.90;;;;;;5057031;28;20544;-64
2023/06/10 04:33:35;;;;;;;5.73;2.17;;;17.00;99.90;;;;;;5057020;28;20169;-63
2023/06/10 04:36:01;;;;;;;3.07;1.90;;;17.00;99.90;;;;;;5056892;28;20173;-63
2023/06/10 04:38:27;;;;;;;3.03;1.97;;;16.90;99.90;;;;;;5057813;28;20243;-64
2023/06/10 04:40:52;;;;;;;7.73;2.33;;;16.90;99.90;;;;;;5056772;28;20243;-63
2023/06/10 04:43:18;;;;;;;7.20;2.03;;;16.90;99.90;;;;;;5056758;28;20157;-63
2023/06/10 04:45:50;;;;;;;6.87;1.93;;;17.00;99.90;;;;;;5056283;28;20172;-63
2023/06/10 04:48:15;;;;;;;4.80;1.90;;;17.00;99.90;;;;;;5056059;28;20169;-63
2023/06/10 04:50:41;;;;;;;4.63;1.40;;;17.00;99.90;;;;;;5054756;28;20205;-63
2023/06/10 04:53:07;;;;;;;7.27;1.87;;;17.00;99.90;;;;;;5053874;28;20188;-63
2023/06/10 04:55:33;;;;;;;3.07;1.50;;;17.10;99.90;;;;;;5053416;28;20272;-63
2023/06/10 04:57:59;;;;;;;6.17;1.97;;;17.10;99.90;;;;;;5054990;28;20204;-63
2023/06/10 05:00:25;;;;;;;6.03;2.50;;;17.10;99.90;;;;;;5055341;28;20170;-63
2023/06/10 05:02:51;;;;;;;5.67;1.90;;;17.10;99.90;;;;;;5055184;28;20221;-64
2023/06/10 05:05:27;;;;;;;6.03;2.30;;;17.10;99.90;;;;;;5057431;28;20231;-63
2023/06/10 05:07:56;;;;;;;7.23;1.57;;;17.20;99.90;;;;;;5056429;28;20195;-63
2023/06/10 05:10:21;;;;;;;4.47;1.90;;;17.20;99.90;;;;;;5056708;28;20266;-64
2023/06/10 05:12:47;;;;;;;4.80;1.77;;;17.20;99.90;;;;;;5056990;28;20507;-64
2023/06/10 05:15:12;;;;;;;4.67;1.73;;;17.20;99.90;;;;;;5056304;28;20173;-63
2023/06/10 05:17:38;;;;;;;7.23;1.73;;;17.20;99.90;;;;;;5056994;28;20197;-63
2023/06/10 05:20:04;;;;;;;9.90;1.93;;;17.30;99.90;;;;;;5057432;28;20177;-63
2023/06/10 05:22:46;;;;;;;8.13;2.13;;;17.30;99.90;;;;;;5056561;28;20170;-63
2023/06/10 05:25:12;;;;;;;4.67;1.60;;;17.30;99.90;;;;;;5056491;28;20174;-63
2023/06/10 05:27:37;;;;;;;5.37;1.93;;;17.30;99.90;;;;;;5056841;28;20180;-63
2023/06/10 05:30:04;;;;;;;9.47;2.33;;;17.30;99.90;;;;;;5056884;28;20201;-63
2023/06/10 05:32:29;;;;;;;5.57;2.00;;;17.30;99.90;;;;;;5057748;28;20212;-64
2023/06/10 05:34:55;;;;;;;4.83;1.60;;;17.30;99.90;;;;;;5059252;28;20208;-64
2023/06/10 05:37:23;;;;;;;8.90;1.47;;;17.40;99.90;;;;;;5075588;28;20192;-63
2023/06/10 05:39:49;;;;;;;5.57;1.80;;;17.40;99.90;;;;;;5059076;28;20237;-63
2023/06/10 05:42:15;;;;;;;8.07;1.87;;;17.40;99.90;;;;;;5060434;28;20161;-63
2023/06/10 05:44:40;;;;;;;7.07;1.80;;;17.40;99.90;;;;;;5077016;28;20172;-63
2023/06/10 05:47:06;;;;;;;4.47;1.57;;;17.40;99.90;;;;;;5059986;28;20516;-63
2023/06/10 05:49:39;;;;;;;3.43;1.90;;;17.40;99.90;;;;;;5059569;28;20165;-63
2023/06/10 05:52:06;;;;;;;4.90;1.87;;;17.40;99.90;;;;;;5076426;28;20736;-63
2023/06/10 05:54:32;;;;;;;9.70;2.23;;;17.40;99.90;;;;;;5059968;28;20330;-64
2023/06/10 05:56:58;;;;;;;4.80;1.77;;;17.40;99.90;;;;;;5059685;28;20298;-64
2023/06/10 05:59:23;;;;;;;7.63;2.10;;;17.40;99.90;;;;;;5059673;28;20177;-63
2023/06/10 06:01:50;;;;;;;5.30;1.53;;;17.40;99.90;;;;;;5058502;28;20172;-64
2023/06/10 06:04:16;;;;;;;8.33;2.23;;;17.40;99.90;;;;;;5074357;28;20175;-64
2023/06/10 06:06:41;;;;;;;5.03;2.43;;;17.50;99.90;;;;;;5073707;28;20165;-64
2023/06/10 06:09:07;;;;;;;5.53;1.93;;;17.50;99.90;;;;;;5074272;28;20171;-64
2023/06/10 06:11:34;;;;;;;6.40;1.90;;;17.50;99.90;;;;;;5074215;28;20553;-64
2023/06/10 06:14:00;;;;;;;4.50;1.50;;;17.50;99.90;;;;;;5056184;28;20222;-64
2023/06/10 06:16:25;;;;;;;4.37;1.80;;;17.50;99.90;;;;;;5057472;28;20164;-64
2023/06/10 06:18:51;;;;;;;4.90;1.70;;;17.60;99.90;;;;;;5056675;28;20574;-63
2023/06/10 06:21:16;;;;;;;7.00;1.70;;;17.60;99.90;;;;;;5049243;28;20687;-63
2023/06/10 06:23:42;;;;;;;3.80;1.70;;;17.60;99.90;;;;;;5054821;28;20552;-64
2023/06/10 06:26:07;;;;;;;4.07;1.67;;;17.60;99.90;;;;;;5053823;28;20767;-64
2023/06/10 06:28:33;;;;;;;3.83;1.93;;;17.60;99.90;;;;;;5054340;28;20481;-64
2023/06/10 06:30:59;;;;;;;4.30;1.80;;;17.60;99.90;;;;;;5052034;28;20221;-63
2023/06/10 06:33:28;;;;;;;5.17;2.27;;;17.70;99.90;;;;;;5052747;28;20227;-63
2023/06/10 06:35:53;;;;;;;4.70;2.27;;;17.70;99.90;;;;;;5052669;28;20166;-63
2023/06/10 06:38:19;;;;;;;4.50;1.83;;;17.70;99.90;;;;;;5053147;28;20201;-63
2023/06/10 06:40:44;;;;;;;9.30;2.53;;;17.70;99.90;;;;;;5051477;28;20594;-63
2023/06/10 06:43:10;;;;;;;5.30;2.67;;;17.70;99.90;;;;;;5051185;28;20161;-64
2023/06/10 06:45:35;;;;;;;5.47;1.93;;;17.80;99.90;;;;;;5051800;28;20249;-63
2023/06/10 06:48:02;;;;;;;3.67;1.97;;;17.80;99.90;;;;;;5052043;28;20177;-64
2023/06/10 06:50:27;;;;;;;9.87;1.83;;;17.80;99.90;;;;;;5051018;28;20197;-64
2023/06/10 06:52:56;;;;;;;7.40;2.00;;;17.80;99.90;;;;;;5049986;28;20322;-63
2023/06/10 06:55:22;;;;;;;7.40;1.87;;;17.80;99.90;;;;;;5049932;28;20173;-64
2023/06/10 06:57:47;;;;;;;4.93;1.90;;;17.80;99.90;;;;;;5046989;28;20193;-63
2023/06/10 07:00:13;;;;;;;5.10;1.73;;;17.90;99.90;;;;;;5048059;28;20494;-63
2023/06/10 07:02:38;;;;;;;5.03;1.77;;;17.90;99.90;;;;;;5049816;28;20256;-63
2023/06/10 07:05:06;;;;;;;6.80;2.27;;;17.90;99.90;;;;;;5047608;28;20185;-63
2023/06/10 07:07:31;;;;;;;3.13;1.63;;;17.90;99.90;;;;;;5051208;28;20176;-63
2023/06/10 07:09:57;;;;;;;5.47;1.73;;;17.90;99.90;;;;;;5049734;28;20177;-63
2023/06/10 07:12:24;;;;;;;7.57;2.40;;;18.00;99.90;;;;;;5050259;28;20183;-64
2023/06/10 07:14:50;;;;;;;6.57;2.60;;;18.00;99.90;;;;;;5052398;28;20272;-64
2023/06/10 07:17:17;;;;;;;5.03;1.93;;;18.00;99.90;;;;;;5050480;28;20314;-64
2023/06/10 07:19:43;;;;;;;4.37;1.60;;;18.00;99.90;;;;;;5053284;28;20189;-63
2023/06/10 07:22:09;;;;;;;7.27;2.60;;;18.00;99.90;;;;;;5047453;28;20269;-63
2023/06/10 07:24:34;;;;;;;5.97;2.50;;;18.00;99.90;;;;;;5046479;28;20180;-63
2023/06/10 07:27:00;;;;;;;3.27;1.93;;;18.10;99.90;;;;;;5046456;28;20209;-63
2023/06/10 07:29:25;;;;;;;4.30;2.03;;;18.10;99.90;;;;;;5045190;28;20347;-64
2023/06/10 07:31:51;;;;;;;4.37;1.90;;;18.10;99.90;;;;;;5060966;28;20342;-63
2023/06/10 07:34:16;;;;;;;7.60;2.80;;;18.10;99.90;;;;;;5066787;28;20225;-63
2023/06/10 07:36:42;;;;;;;4.90;2.10;;;18.20;99.90;;;;;;5048462;28;20180;-63
2023/06/10 07:39:08;;;;;;;6.47;2.30;;;18.20;99.90;;;;;;5046435;28;20236;-63
2023/06/10 07:41:37;;;;;;;6.10;2.10;;;18.20;99.90;;;;;;5048599;28;20177;-63
2023/06/10 07:44:06;;;;;;;5.97;2.10;;;18.30;99.90;;;;;;5065319;28;20172;-64
2023/06/10 07:46:32;;;;;;;6.77;2.40;;;18.30;99.90;;;;;;5048412;28;20185;-64
2023/06/10 07:48:57;;;;;;;7.23;2.20;;;18.30;99.90;;;;;;5067038;28;20198;-64
2023/06/10 07:51:23;;;;;;;3.57;2.30;;;18.30;99.90;;;;;;5047670;28;20208;-64
2023/06/10 07:53:49;;;;;;;6.70;2.10;;;18.40;99.90;;;;;;5047514;28;20169;-63
2023/06/10 07:56:14;;;;;;;3.90;1.93;;;18.40;99.90;;;;;;5048062;28;20453;-64
2023/06/10 07:58:40;;;;;;;4.50;2.27;;;18.40;99.90;;;;;;5066805;28;20208;-64
2023/06/10 08:01:07;;;;;;;3.73;2.40;;;18.50;99.90;;;;;;5051305;28;20568;-63
2023/06/10 08:03:32;;;;;;;4.43;1.80;;;18.50;99.90;;;;;;5068855;28;20251;-63
2023/06/10 08:05:58;;;;;;;4.00;1.77;;;18.50;99.90;;;;;;5066937;28;20223;-63
2023/06/10 08:08:24;;;;;;;8.53;2.67;;;18.50;99.90;;;;;;5068998;28;20172;-63
2023/06/10 08:10:49;;;;;;;5.17;2.33;;;18.60;99.90;;;;;;5045442;28;20278;-64
2023/06/10 08:13:15;;;;;;;4.37;2.70;;;18.60;99.90;;;;;;5046345;28;20169;-63
2023/06/10 08:15:41;;;;;;;5.43;2.67;;;18.60;99.90;;;;;;5047308;28;20172;-63
2023/06/10 08:18:06;;;;;;;4.33;2.13;;;18.70;99.90;;;;;;5046639;28;20465;-63
2023/06/10 08:20:32;;;;;;;9.73;2.83;;;18.70;99.90;;;;;;5050605;28;20175;-63
2023/06/10 08:22:58;;;;;;;5.97;2.53;;;18.70;99.90;;;;;;5057349;28;20595;-64
2023/06/10 08:25:23;;;;;;;4.33;2.30;;;18.70;99.90;;;;;;5075761;28;20226;-64
2023/06/10 08:27:50;;;;;;;5.03;2.00;;;18.80;99.90;;;;;;5057342;28;20187;-63
2023/06/10 08:30:16;;;;;;;5.43;2.13;;;18.80;99.90;;;;;;5075775;28;20307;-63
2023/06/10 08:32:41;;;;;;;6.17;2.50;;;18.80;99.90;;;;;;5075459;28;20256;-63
2023/06/10 08:35:09;;;;;;;6.03;2.30;;;18.90;99.90;;;;;;5057852;28;20196;-63
2023/06/10 08:37:36;;;;;;;4.17;1.90;;;18.90;99.90;;;;;;5059537;28;20200;-63
2023/06/10 08:40:05;;;;;;;3.37;2.07;;;19.00;99.90;;;;;;5076297;28;20268;-63
2023/06/10 08:42:45;;;;;;;6.67;2.43;;;19.00;99.90;;;;;;5058076;28;20168;-64
2023/06/10 08:45:18;;;;;;;6.70;2.67;;;19.10;99.90;;;;;;5074459;28;20169;-64
2023/06/10 08:47:50;;;;;;;8.13;2.40;;;19.10;99.90;;;;;;5056801;28;20253;-63
2023/06/10 08:50:19;;;;;;;4.23;2.50;;;19.10;99.90;;;;;;5074473;28;20164;-63
2023/06/10 08:52:50;;;;;;;4.20;2.43;;;19.10;99.90;;;;;;5075061;28;20226;-63
2023/06/10 08:55:22;;;;;;;6.30;2.63;;;19.20;99.90;;;;;;5058509;28;20283;-63
2023/06/10 08:57:48;;;;;;;5.70;2.57;;;19.20;99.90;;;;;;5058298;28;20254;-64
2023/06/10 09:00:16;;;;;;;4.90;2.60;;;19.20;99.90;;;;;;5074477;28;20157;-64
2023/06/10 09:02:43;;;;;;;5.07;2.73;;;19.30;99.90;;;;;;5056668;28;20203;-64
2023/06/10 09:05:10;;;;;;;5.23;2.30;;;19.30;99.90;;;;;;5056902;28;20161;-64
2023/06/10 09:07:36;;;;;;;5.03;2.70;;;19.30;99.90;;;;;;5056855;28;20176;-63
2023/06/10 09:10:04;;;;;;;5.73;2.30;;;19.40;99.90;;;;;;5056727;28;20530;-64
2023/06/10 09:12:30;;;;;;;4.10;2.23;;;19.40;99.90;;;;;;5070500;28;20181;-64
2023/06/10 09:14:56;;;;;;;5.97;2.50;;;19.50;99.90;;;;;;5050270;28;20346;-63
2023/06/10 09:17:22;;;;;;;9.90;2.30;;;19.50;99.90;;;;;;5051826;28;20281;-63
2023/06/10 09:19:48;;;;;;;5.17;2.40;;;19.60;99.90;;;;;;5070256;28;20221;-63
2023/06/10 09:22:14;;;;;;;5.17;2.30;;;19.60;99.90;;;;;;5074126;28;20230;-65
2023/06/10 09:24:41;;;;;;;5.80;2.43;;;19.60;99.90;;;;;;5056509;28;20169;-63
2023/06/10 09:27:08;;;;;;;3.70;2.30;;;19.70;99.90;;;;;;5057051;28;20168;-63
2023/06/10 09:29:57;;;;;;;5.17;2.20;;;19.70;99.90;;;;;;5055957;28;20259;-63
2023/06/10 09:32:24;;;;;;;6.17;2.90;;;19.80;99.90;;;;;;5071829;28;20193;-63
2023/06/10 09:34:53;;;;;;;4.47;2.83;;;19.90;99.90;;;;;;5071064;28;20638;-63
2023/06/10 09:37:22;;;;;;;5.17;2.77;;;19.90;99.90;;;;;;5069668;28;20359;-64
2023/06/10 09:40:07;;;;;;;6.73;3.00;;;19.90;99.90;;;;;;5039795;28;20168;-63
2023/06/10 09:42:35;;;;;;;4.97;2.80;;;20.00;99.90;;;;;;5072272;28;20161;-63
2023/06/10 09:45:02;;;;;;;5.03;2.43;;;20.00;99.90;;;;;;5056188;28;20161;-63
2023/06/10 09:47:28;;;;;;;8.33;2.83;;;20.00;99.90;;;;;;5074600;28;20262;-63
2023/06/10 09:49:55;;;;;;;6.57;2.50;;;20.10;99.90;;;;;;5057373;28;20180;-63
2023/06/10 09:52:26;;;;;;;5.27;2.60;;;20.10;99.90;;;;;;5088509;28;20180;-63
2023/06/10 09:54:53;;;;;;;3.70;2.43;;;20.20;99.90;;;;;;5054986;28;20685;-63
2023/06/10 09:57:20;;;;;;;8.70;2.87;;;20.30;99.90;;;;;;5054214;28;20763;-63
2023/06/10 09:59:57;;;;;;;6.53;2.50;;;20.30;99.90;;;;;;5054080;28;20171;-63
2023/06/10 10:02:22;;;;;;;7.20;4.17;;;20.30;99.90;;;;;;5053935;28;20183;-63
2023/06/10 10:04:50;;;;;;;7.43;3.00;;;20.40;99.90;;;;;;5052988;28;20161;-62
2023/06/10 10:07:15;;;;;;;4.60;2.93;;;20.40;99.90;;;;;;5084860;28;20173;-62
2023/06/10 10:09:42;;;;;;;5.97;2.70;;;20.50;99.90;;;;;;5068751;28;20172;-62
2023/06/10 10:12:12;;;;;;;6.40;3.53;;;20.50;99.90;;;;;;5050065;28;20172;-62
2023/06/10 10:14:40;;;;;;;5.60;3.07;;;20.50;99.90;;;;;;5050055;28;20169;-62
2023/06/10 10:17:11;;;;;;;4.87;3.23;;;20.60;99.90;;;;;;5050450;28;20196;-62
2023/06/10 10:19:47;;;;;;;6.57;2.43;;;20.60;99.90;;;;;;5049680;28;20165;-62
2023/06/10 10:22:20;;;;;;;4.10;2.60;;;20.70;99.90;;;;;;5050888;28;20165;-62
2023/06/10 10:24:55;;;;;;;7.47;2.77;;;20.70;99.90;;;;;;5052078;28;20172;-62
2023/06/10 10:27:27;;;;;;;5.67;3.00;;;20.80;99.90;;;;;;5050962;28;20169;-62
2023/06/10 10:29:54;;;;;;;6.70;3.13;;;20.80;99.90;;;;;;5051050;28;20227;-62
2023/06/10 10:32:28;;;;;;;9.10;2.93;;;20.90;99.90;;;;;;5069135;28;20646;-61
2023/06/10 10:35:18;;;;;;;4.77;2.60;;;21.00;99.90;;;;;;5069997;28;20176;-62
2023/06/10 10:37:46;;;;;;;5.67;2.70;;;21.00;99.90;;;;;;5069840;28;20196;-62
2023/06/10 10:40:13;;;;;;;4.60;2.50;;;21.10;99.90;;;;;;5053026;28;20241;-62
2023/06/10 10:42:39;;;;;;;9.73;3.37;;;21.10;99.90;;;;;;5052791;28;20211;-62
2023/06/10 10:45:06;;;;;;;5.67;2.67;;;21.20;99.90;;;;;;5051661;28;20196;-62
2023/06/10 10:47:35;;;;;;;6.20;3.20;;;21.20;99.90;;;;;;5052443;28;20184;-62
2023/06/10 10:50:01;;;;;;;6.37;2.83;;;21.30;99.90;;;;;;5054027;28;20168;-62
2023/06/10 10:52:58;;;;;;;5.77;2.73;;;21.30;99.90;;;;;;5051592;28;20180;-62
2023/06/10 10:55:26;;;;;;;4.97;3.30;;;21.40;99.90;;;;;;5045314;28;20180;-62
2023/06/10 10:58:09;;;;;;;4.30;3.03;;;21.40;99.90;;;;;;5051155;28;20727;-62
2023/06/10 11:00:37;;;;;;;7.47;3.70;;;21.40;99.90;;;;;;5050437;28;20165;-62
2023/06/10 11:03:07;;;;;;;6.43;3.40;;;21.60;99.90;;;;;;5049792;28;20188;-62
2023/06/10 11:05:47;;;;;;;6.37;2.87;;;21.60;99.90;;;;;;5066111;28;20244;-62
2023/06/10 11:08:47;;;;;;;9.20;2.77;;;21.60;99.90;;;;;;5049255;28;20202;-62
2023/06/10 11:11:25;;;;;;;5.50;2.70;;;21.70;99.90;;;;;;5046402;28;20338;-62
2023/06/10 11:14:01;;;;;;;7.40;3.10;;;21.70;99.90;;;;;;5065058;28;20176;-62
2023/06/10 11:16:28;;;;;;;6.93;3.17;;;21.80;99.90;;;;;;5047858;28;20171;-62
2023/06/10 11:18:55;;;;;;;5.80;2.87;;;21.80;99.90;;;;;;5062620;28;20196;-62
2023/06/10 11:21:22;;;;;;;7.63;2.80;;;21.90;99.90;;;;;;5045148;28;20165;-62
2023/06/10 11:23:50;;;;;;;6.90;3.10;;;21.90;99.90;;;;;;5047180;28;20160;-62
2023/06/10 11:26:21;;;;;;;10.27;3.27;;;22.00;99.90;;;;;;5046449;28;20313;-62
2023/06/10 11:28:47;;;;;;;4.63;2.67;;;22.10;99.90;;;;;;5067320;28;20172;-62
2023/06/10 11:31:29;;;;;;;6.37;3.10;;;22.10;99.90;;;;;;5046853;28;20232;-62
2023/06/10 11:33:57;;;;;;;5.83;2.80;;;22.20;99.90;;;;;;5046643;28;20184;-62
2023/06/10 11:36:27;;;;;;;6.80;3.10;;;22.20;99.90;;;;;;5082871;28;20168;-63
2023/06/10 11:39:04;;;;;;;5.67;2.80;;;22.30;99.90;;;;;;5054261;28;20208;-62
2023/06/10 11:41:30;;;;;;;7.80;3.63;;;22.40;99.90;;;;;;5054538;28;20625;-63
2023/06/10 11:44:15;;;;;;;7.23;2.97;;;22.50;99.90;;;;;;5055289;28;20251;-62
2023/06/10 11:46:42;;;;;;;6.40;3.20;;;22.60;99.90;;;;;;5054218;28;20169;-62
2023/06/10 11:49:12;;;;;;;5.13;3.10;;;22.80;99.90;;;;;;5071569;28;20177;-62
2023/06/10 11:51:40;;;;;;;7.60;3.17;;;22.90;99.90;;;;;;5055067;28;20175;-62
2023/06/10 11:54:07;;;;;;;7.33;4.17;;;23.00;99.90;;;;;;5073199;28;20732;-62
2023/06/10 11:56:33;;;;;;;5.83;3.27;;;23.10;99.90;;;;;;5053014;28;20204;-62
2023/06/10 11:59:05;;;;;;;7.07;3.40;;;23.30;99.90;;;;;;5054030;28;20245;-62
2023/06/10 12:01:33;;;;;;;7.70;3.27;;;23.40;99.90;;;;;;5072109;28;20639;-62
2023/06/10 12:04:18;;;;;;;5.70;3.20;;;23.50;99.90;;;;;;5057572;28;20173;-62
2023/06/10 12:06:48;;;;;;;8.87;3.90;;;23.60;99.90;;;;;;5056859;28;20742;-62
2023/06/10 12:09:24;;;;;;;9.45;3.03;;;23.70;99.90;;;;;;5073025;28;20657;-62
2023/06/10 12:12:01;;;;;;;6.18;4.10;;;23.90;99.90;;;;;;5073217;28;20157;-62
2023/06/10 12:14:54;;;;;;;5.60;3.55;;;23.90;99.90;;;;;;5076568;28;20168;-62
2023/06/10 12:17:22;;;;;;;9.88;3.97;;;24.20;99.90;;;;;;5057297;28;20208;-62
2023/06/10 12:19:49;;;;;;;5.93;3.85;;;24.20;99.90;;;;;;5075695;28;20165;-61
2023/06/10 12:22:14;;;;;;;9.93;3.50;;;24.30;99.90;;;;;;5089997;28;20161;-62
2023/06/10 12:24:59;;;;;;;4.97;3.65;;;24.50;99.90;;;;;;5056174;28;20259;-62
2023/06/10 12:27:25;;;;;;;6.40;3.25;;;24.60;99.90;;;;;;5055360;28;20176;-62
2023/06/10 12:30:03;;;;;;;8.20;3.65;;;24.70;99.90;;;;;;5071079;28;20173;-62
2023/06/10 12:32:42;;;;;;;5.00;3.42;;;24.80;99.90;;;;;;5070471;28;20261;-62
2023/06/10 12:35:12;;;;;;;5.25;3.33;;;24.90;99.90;;;;;;5052200;28;20168;-62
2023/06/10 12:37:38;;;;;;;7.75;3.50;;;25.00;99.90;;;;;;5050291;28;20201;-62
2023/06/10 12:40:06;;;;;;;6.05;3.58;;;25.10;99.90;;;;;;5069260;28;20168;-62
2023/06/10 12:42:36;;;;;;;7.45;3.45;;;25.30;99.90;;;;;;5053475;28;20153;-62
2023/06/10 12:45:02;;;;;;;5.28;3.30;;;25.40;99.90;;;;;;5071767;28;20184;-62
2023/06/10 12:47:36;;;;;;;5.18;3.72;;;25.50;99.90;;;;;;5052962;28;20537;-62
2023/06/10 12:50:02;;;;;;;7.25;3.25;;;25.60;99.90;;;;;;5054857;28;20196;-62